METAR Data
IDs: Format: Raw Decoded Include TAF

Data at: 0005 UTC 30 May 2020

METAR for:KHGR (Hagerstown Rgnl, MD, US)
Text:KHGR 292353Z 16009KT 10SM CLR 27/20 A2988 RMK AO2 SLP120 60000 T02670200 10300 20233 55001
Temperature: 26.7°C ( 80°F)
Dewpoint: 20.0°C ( 68°F) [RH = 67%]
Pressure (altimeter):29.88 inches Hg (1011.9 mb) [Sea level pressure: 1012.0 mb]
Winds:from the SSE (160 degrees) at 10 MPH (9 knots; 4.6 m/s)
Visibility:10 or more sm (16+ km)
Ceiling:at least 12,000 feet AGL
Clouds:sky clear below 12,000 feet AGL